Time;durP1;ratioP1;P1;durP2;ratioP2;P2;SDS_P1;SDS_P2;PMS_P1;PMS_P2;Temp;Humidity;BMP_temperature;BMP_pressure;BME280_temperature;BME280_humidity;BME280_pressure;Samples;Min_cycle;Max_cycle;Signal;HPM_P1;HPM_P2
2022/12/26 00:01:22;;;;;;;4.00;2.57;;;;;;;;;;5005869;28;20174;-82
2022/12/26 00:03:48;;;;;;;2.47;2.27;;;;;;;;;;5007031;28;20182;-82
2022/12/26 00:06:14;;;;;;;2.67;2.00;;;;;;;;;;5008350;28;20340;-82
2022/12/26 00:08:40;;;;;;;2.13;1.93;;;;;;;;;;5008799;28;20179;-82
2022/12/26 00:11:06;;;;;;;2.80;2.10;;;;;;;;;;5009587;28;20210;-82
2022/12/26 00:13:31;;;;;;;2.83;2.30;;;;;;;;;;5011958;28;20182;-82
2022/12/26 00:15:56;;;;;;;3.27;2.97;;;;;;;;;;5010405;28;20192;-82
2022/12/26 00:18:21;;;;;;;3.57;2.50;;;;;;;;;;5010583;28;21741;-82
2022/12/26 00:20:46;;;;;;;3.20;2.27;;;;;;;;;;5024999;28;20193;-82
2022/12/26 00:23:12;;;;;;;3.47;2.20;;;;;;;;;;5007780;28;20210;-82
2022/12/26 00:25:37;;;;;;;2.40;1.93;;;;;;;;;;5010374;28;20183;-82
2022/12/26 00:28:02;;;;;;;2.67;2.37;;;;;;;;;;5009013;28;20319;-82
2022/12/26 00:30:28;;;;;;;2.70;2.50;;;;;;;;;;5009832;28;20207;-82
2022/12/26 00:32:53;;;;;;;2.43;2.23;;;;;;;;;;5008041;28;20186;-82
2022/12/26 00:35:18;;;;;;;2.67;2.20;;;;;;;;;;5012346;28;20250;-82
2022/12/26 00:37:43;;;;;;;3.03;2.17;;;;;;;;;;5035027;28;20239;-82
2022/12/26 00:40:09;;;;;;;2.77;2.33;;;;;;;;;;5047713;28;20182;-82
2022/12/26 00:42:34;;;;;;;2.30;2.10;;;;;;;;;;5041471;28;20205;-82
2022/12/26 00:44:59;;;;;;;3.50;2.20;;;;;;;;;;5047467;28;20182;-81
2022/12/26 00:47:24;;;;;;;2.50;2.30;;;;;;;;;;5047268;28;20210;-81
2022/12/26 00:49:50;;;;;;;3.23;2.20;;;;;;;;;;5047082;28;20209;-81
2022/12/26 00:52:15;;;;;;;3.87;2.23;;;;;;;;;;5044281;28;20227;-82
2022/12/26 00:54:40;;;;;;;4.00;2.20;;;;;;;;;;5043884;28;20190;-82
2022/12/26 00:57:05;;;;;;;2.30;1.97;;;;;;;;;;5043221;28;20179;-82
2022/12/26 00:59:30;;;;;;;2.70;2.50;;;;;;;;;;5047956;28;20211;-82
2022/12/26 01:01:56;;;;;;;2.20;1.90;;;;;;;;;;5045256;28;20188;-81
2022/12/26 01:04:21;;;;;;;3.17;1.90;;;;;;;;;;5044344;28;20199;-82
2022/12/26 01:06:46;;;;;;;2.33;1.90;;;;;;;;;;5045533;28;20181;-82
2022/12/26 01:09:12;;;;;;;3.20;2.10;;;;;;;;;;5047485;28;20212;-82
2022/12/26 01:11:40;;;;;;;3.07;2.10;;;;;;;;;;5045070;28;20178;-82
2022/12/26 01:14:07;;;;;;;2.50;2.20;;;;;;;;;;5044510;28;20178;-82
2022/12/26 01:16:32;;;;;;;3.33;2.30;;;;;;;;;;5043873;28;20269;-82
2022/12/26 01:18:58;;;;;;;5.33;3.13;;;;;;;;;;5045313;28;20285;-82
2022/12/26 01:21:23;;;;;;;2.20;2.00;;;;;;;;;;5044688;28;20194;-82
2022/12/26 01:23:48;;;;;;;2.73;1.90;;;;;;;;;;5044627;28;20213;-82
2022/12/26 01:26:13;;;;;;;4.17;2.80;;;;;;;;;;5042295;28;20284;-82
2022/12/26 01:28:38;;;;;;;4.57;2.00;;;;;;;;;;5044676;28;20182;-82
2022/12/26 01:31:04;;;;;;;3.47;2.03;;;;;;;;;;5044351;28;20297;-82
2022/12/26 01:33:29;;;;;;;4.97;2.30;;;;;;;;;;5045145;28;20182;-82
2022/12/26 01:35:55;;;;;;;2.80;2.00;;;;;;;;;;5043964;28;20167;-82
2022/12/26 01:38:20;;;;;;;2.37;1.90;;;;;;;;;;5029441;28;20181;-82
2022/12/26 01:40:45;;;;;;;3.70;2.00;;;;;;;;;;5026473;28;20188;-82
2022/12/26 01:43:11;;;;;;;2.70;1.80;;;;;;;;;;5030552;28;20197;-82
2022/12/26 01:45:36;;;;;;;4.00;2.20;;;;;;;;;;5031502;28;20178;-82
2022/12/26 01:48:21;;;;;;;2.63;1.70;;;;;;;;;;5014825;28;20202;-81
2022/12/26 01:51:02;;;;;;;2.20;2.00;;;;;;;;;;5046745;28;20236;-82
2022/12/26 01:53:29;;;;;;;3.23;2.10;;;;;;;;;;5030904;28;20201;-81
2022/12/26 01:55:57;;;;;;;2.20;2.00;;;;;;;;;;5033474;28;20187;-82
2022/12/26 01:58:26;;;;;;;2.17;1.93;;;;;;;;;;5046859;28;20178;-82
2022/12/26 02:00:51;;;;;;;2.10;1.90;;;;;;;;;;5031220;28;20224;-82
2022/12/26 02:06:01;;;;;;;2.07;1.67;;;;;;;;;;5051095;28;20998;-82
2022/12/26 02:08:31;;;;;;;2.20;2.00;;;;;;;;;;5033561;28;20191;-82
2022/12/26 02:11:05;;;;;;;2.43;2.20;;;;;;;;;;5049371;28;20222;-82
2022/12/26 02:13:30;;;;;;;2.83;2.17;;;;;;;;;;5052594;28;20182;-82
2022/12/26 02:15:55;;;;;;;3.37;2.20;;;;;;;;;;5048146;28;20189;-82
2022/12/26 02:18:21;;;;;;;2.67;2.47;;;;;;;;;;5030699;28;20285;-82
2022/12/26 02:20:53;;;;;;;2.53;2.03;;;;;;;;;;5030448;28;20283;-82
2022/12/26 02:23:30;;;;;;;2.57;1.60;;;;;;;;;;5026797;28;20253;-82
2022/12/26 02:25:56;;;;;;;2.33;2.13;;;;;;;;;;5044010;28;20225;-81
2022/12/26 02:28:21;;;;;;;2.93;2.10;;;;;;;;;;5048739;28;20190;-81
2022/12/26 02:31:05;;;;;;;3.63;1.80;;;;;;;;;;5050543;28;20228;-81
2022/12/26 02:33:38;;;;;;;3.20;2.23;;;;;;;;;;5028403;28;20189;-82
2022/12/26 02:36:03;;;;;;;2.30;2.07;;;;;;;;;;5035500;28;20185;-82
2022/12/26 02:38:28;;;;;;;2.10;1.90;;;;;;;;;;5032060;28;20190;-82
2022/12/26 02:41:02;;;;;;;2.43;2.00;;;;;;;;;;5031845;28;20188;-82
2022/12/26 02:43:45;;;;;;;3.20;2.27;;;;;;;;;;5029462;28;20365;-82
2022/12/26 02:49:20;;;;;;;2.63;1.97;;;;;;;;;;5044914;28;20212;-82
2022/12/26 03:14:26;;;;;;;2.50;1.90;;;;;;;;;;5048165;28;20251;-82
2022/12/26 03:19:56;;;;;;;3.07;2.47;;;;;;;;;;5046358;28;20263;-82
2022/12/26 03:22:31;;;;;;;4.23;2.20;;;;;;;;;;5028751;28;20230;-82
2022/12/26 03:27:45;;;;;;;2.20;1.97;;;;;;;;;;5050339;28;20228;-81
2022/12/26 03:32:55;;;;;;;3.80;2.17;;;;;;;;;;5049546;28;20184;-81
2022/12/26 03:35:22;;;;;;;3.13;2.00;;;;;;;;;;5028868;28;20189;-82
2022/12/26 03:37:54;;;;;;;2.33;2.13;;;;;;;;;;5048920;28;20235;-81
2022/12/26 04:20:33;;;;;;;2.07;1.87;;;;;;;;;;5045677;28;20196;-81
2022/12/26 04:45:24;;;;;;;2.60;2.40;;;;;;;;;;5025702;28;20205;-82
2022/12/26 04:50:33;;;;;;;2.10;1.90;;;;;;;;;;5028643;28;20220;-81
2022/12/26 04:52:59;;;;;;;3.40;2.00;;;;;;;;;;5006879;28;20180;-81
2022/12/26 04:55:31;;;;;;;4.90;2.00;;;;;;;;;;5003495;28;20167;-82
2022/12/26 04:57:56;;;;;;;2.73;2.03;;;;;;;;;;5008860;28;20263;-82
2022/12/26 05:00:24;;;;;;;2.80;2.20;;;;;;;;;;5003096;28;20178;-81
2022/12/26 05:11:06;;;;;;;3.50;2.57;;;;;;;;;;5023807;28;20252;-82
2022/12/26 05:13:31;;;;;;;2.37;2.10;;;;;;;;;;5008229;28;20187;-82
2022/12/26 05:29:37;;;;;;;2.83;1.97;;;;;;;;;;5024290;28;20221;-81
2022/12/26 05:32:02;;;;;;;4.67;2.70;;;;;;;;;;5009211;28;20199;-81
2022/12/26 05:34:27;;;;;;;2.70;2.50;;;;;;;;;;5013652;28;20207;-81
2022/12/26 05:36:55;;;;;;;2.60;2.40;;;;;;;;;;5029168;28;20308;-81
2022/12/26 05:39:20;;;;;;;2.43;2.17;;;;;;;;;;5046417;28;20252;-81
2022/12/26 05:41:45;;;;;;;2.77;2.57;;;;;;;;;;5045715;28;20186;-81
2022/12/26 05:44:11;;;;;;;3.67;2.63;;;;;;;;;;5046608;28;20260;-81
2022/12/26 05:46:36;;;;;;;2.80;2.60;;;;;;;;;;5048512;28;20182;-81
2022/12/26 05:49:02;;;;;;;3.67;2.53;;;;;;;;;;5050522;28;20184;-82
2022/12/26 05:51:27;;;;;;;3.83;2.57;;;;;;;;;;5046252;28;20227;-81
2022/12/26 05:53:53;;;;;;;4.60;2.83;;;;;;;;;;5054650;28;20265;-82
2022/12/26 05:56:18;;;;;;;3.13;2.83;;;;;;;;;;5046932;28;20175;-81
2022/12/26 05:58:44;;;;;;;5.73;2.53;;;;;;;;;;5051629;28;20301;-82
2022/12/26 06:01:10;;;;;;;2.63;2.43;;;;;;;;;;5044512;28;20233;-82
2022/12/26 06:03:36;;;;;;;2.50;2.30;;;;;;;;;;5049391;28;20206;-82
2022/12/26 06:06:01;;;;;;;2.60;2.40;;;;;;;;;;5046489;28;20228;-82
2022/12/26 06:08:26;;;;;;;2.50;2.30;;;;;;;;;;5050876;28;20214;-81
2022/12/26 06:10:52;;;;;;;3.10;2.80;;;;;;;;;;5046981;28;20258;-81
2022/12/26 06:13:17;;;;;;;4.60;2.70;;;;;;;;;;5048627;28;20178;-81
2022/12/26 06:15:42;;;;;;;2.90;2.70;;;;;;;;;;5047753;28;20209;-81
2022/12/26 06:18:07;;;;;;;3.53;2.20;;;;;;;;;;5048569;28;20206;-81
2022/12/26 06:20:32;;;;;;;3.00;2.37;;;;;;;;;;5045264;28;20184;-81
2022/12/26 06:22:58;;;;;;;4.70;2.77;;;;;;;;;;5048925;28;20266;-82
2022/12/26 06:25:23;;;;;;;3.43;2.57;;;;;;;;;;5048421;28;20178;-81
2022/12/26 06:27:48;;;;;;;3.30;2.53;;;;;;;;;;5049153;28;20189;-82
2022/12/26 06:30:13;;;;;;;2.90;2.70;;;;;;;;;;5047964;28;20228;-82
2022/12/26 06:32:38;;;;;;;3.63;2.80;;;;;;;;;;5045043;28;20240;-82
2022/12/26 06:35:04;;;;;;;3.43;2.87;;;;;;;;;;5048756;28;20172;-81
2022/12/26 06:37:29;;;;;;;4.07;3.37;;;;;;;;;;5048620;28;20590;-81
2022/12/26 06:39:55;;;;;;;4.60;2.57;;;;;;;;;;5064105;28;20241;-81
2022/12/26 06:42:20;;;;;;;3.20;2.53;;;;;;;;;;5045555;28;20183;-81
2022/12/26 06:44:45;;;;;;;3.37;2.60;;;;;;;;;;5044628;28;20180;-81
2022/12/26 06:47:10;;;;;;;3.13;2.83;;;;;;;;;;5045857;28;20191;-82
2022/12/26 06:49:36;;;;;;;2.97;2.60;;;;;;;;;;5046447;28;20273;-81
2022/12/26 06:52:01;;;;;;;3.10;2.63;;;;;;;;;;5066244;28;20184;-81
2022/12/26 06:54:26;;;;;;;6.70;3.23;;;;;;;;;;5047589;28;20179;-82
2022/12/26 06:56:51;;;;;;;3.67;3.33;;;;;;;;;;5042592;28;20269;-81
2022/12/26 06:59:17;;;;;;;3.30;2.73;;;;;;;;;;5054724;28;20266;-81
2022/12/26 07:01:42;;;;;;;3.10;2.80;;;;;;;;;;5047306;28;20182;-81
2022/12/26 07:04:08;;;;;;;3.27;2.50;;;;;;;;;;5048578;28;20204;-81
2022/12/26 07:06:34;;;;;;;2.93;2.67;;;;;;;;;;5043718;28;20178;-81
2022/12/26 07:09:04;;;;;;;3.10;2.80;;;;;;;;;;5063715;28;20183;-81
2022/12/26 07:11:32;;;;;;;3.80;2.53;;;;;;;;;;5042251;28;20210;-81
2022/12/26 07:13:57;;;;;;;2.77;2.57;;;;;;;;;;5049933;28;20217;-81
2022/12/26 07:16:23;;;;;;;2.77;2.57;;;;;;;;;;5049570;28;20202;-81
2022/12/26 07:18:50;;;;;;;3.30;2.83;;;;;;;;;;5045270;28;20204;-81
2022/12/26 07:21:15;;;;;;;3.00;2.70;;;;;;;;;;5041613;28;20197;-81
2022/12/26 07:23:41;;;;;;;3.10;2.80;;;;;;;;;;5039718;28;20187;-81
2022/12/26 07:26:06;;;;;;;4.77;3.13;;;;;;;;;;5045806;28;20182;-81
2022/12/26 07:28:32;;;;;;;4.07;2.80;;;;;;;;;;5048586;28;20183;-81
2022/12/26 07:30:59;;;;;;;3.20;2.90;;;;;;;;;;5043477;28;20199;-81
2022/12/26 07:33:24;;;;;;;4.87;3.03;;;;;;;;;;5047925;28;20185;-81
2022/12/26 07:35:49;;;;;;;4.70;3.33;;;;;;;;;;5047278;28;20179;-81
2022/12/26 07:38:14;;;;;;;4.20;2.90;;;;;;;;;;5040430;28;20317;-81
2022/12/26 07:40:40;;;;;;;3.00;2.70;;;;;;;;;;5046402;28;20181;-81
2022/12/26 07:43:05;;;;;;;3.40;2.63;;;;;;;;;;5046493;28;20225;-81
2022/12/26 07:45:30;;;;;;;3.20;2.90;;;;;;;;;;5046406;28;20214;-81
2022/12/26 07:47:56;;;;;;;3.23;2.93;;;;;;;;;;5043130;28;20225;-81
2022/12/26 07:50:21;;;;;;;5.00;3.07;;;;;;;;;;5044481;28;20285;-81
2022/12/26 07:52:47;;;;;;;3.67;3.30;;;;;;;;;;5048908;28;20206;-81
2022/12/26 07:55:12;;;;;;;4.27;2.70;;;;;;;;;;5045697;28;20258;-81
2022/12/26 07:57:37;;;;;;;4.13;3.00;;;;;;;;;;5042541;28;20175;-81
2022/12/26 08:00:03;;;;;;;5.83;3.30;;;;;;;;;;5043392;28;20186;-81
2022/12/26 08:02:29;;;;;;;3.53;3.17;;;;;;;;;;5041134;28;20183;-81
2022/12/26 08:04:54;;;;;;;3.83;3.23;;;;;;;;;;5045417;28;20240;-81
2022/12/26 08:07:19;;;;;;;4.00;2.77;;;;;;;;;;5049679;28;20209;-81
2022/12/26 08:09:44;;;;;;;4.07;3.07;;;;;;;;;;5045756;28;20233;-81
2022/12/26 08:12:10;;;;;;;5.40;3.60;;;;;;;;;;5045197;28;20203;-82
2022/12/26 08:14:35;;;;;;;5.83;4.63;;;;;;;;;;5038102;28;20187;-81
2022/12/26 08:17:01;;;;;;;10.00;7.63;;;;;;;;;;5046390;28;20182;-82
2022/12/26 08:19:26;;;;;;;4.47;3.83;;;;;;;;;;5047162;28;20172;-81
2022/12/26 08:21:51;;;;;;;4.07;3.67;;;;;;;;;;5049779;28;20205;-81
2022/12/26 08:24:16;;;;;;;6.50;5.03;;;;;;;;;;5043976;28;20209;-81
2022/12/26 08:26:42;;;;;;;4.30;3.90;;;;;;;;;;5046264;28;20389;-81
2022/12/26 08:29:08;;;;;;;4.40;4.00;;;;;;;;;;5049173;28;20174;-81
2022/12/26 08:31:34;;;;;;;4.00;3.60;;;;;;;;;;5046869;28;20211;-82
2022/12/26 08:33:59;;;;;;;3.50;2.90;;;;;;;;;;5045887;28;20183;-82
2022/12/26 08:36:24;;;;;;;3.50;3.20;;;;;;;;;;5040253;28;20221;-81
2022/12/26 08:38:49;;;;;;;6.60;5.83;;;;;;;;;;5042521;28;20221;-81
2022/12/26 08:41:16;;;;;;;12.30;10.70;;;;;;;;;;5064709;28;20174;-81
2022/12/26 08:43:41;;;;;;;5.77;5.13;;;;;;;;;;5049281;28;20186;-81
2022/12/26 08:46:09;;;;;;;5.93;5.17;;;;;;;;;;5049880;28;20228;-81
2022/12/26 08:48:35;;;;;;;5.73;4.13;;;;;;;;;;5046009;28;20183;-81
2022/12/26 08:51:07;;;;;;;4.53;3.97;;;;;;;;;;5046804;28;20191;-81
2022/12/26 08:53:34;;;;;;;4.73;3.67;;;;;;;;;;5043230;28;20174;-81
2022/12/26 08:56:00;;;;;;;3.80;3.40;;;;;;;;;;5046908;28;20197;-81
2022/12/26 08:58:25;;;;;;;4.80;3.83;;;;;;;;;;5049284;28;20178;-81
2022/12/26 09:00:50;;;;;;;4.00;3.33;;;;;;;;;;5047693;28;20457;-81
2022/12/26 09:03:16;;;;;;;4.13;3.70;;;;;;;;;;5045277;28;20255;-81
2022/12/26 09:05:41;;;;;;;4.27;3.63;;;;;;;;;;5046518;28;20218;-81
2022/12/26 09:08:06;;;;;;;3.77;3.30;;;;;;;;;;5037739;28;20176;-81
2022/12/26 09:10:32;;;;;;;3.67;3.30;;;;;;;;;;5044173;28;20286;-81
2022/12/26 09:12:57;;;;;;;3.33;3.03;;;;;;;;;;5041643;28;20179;-81
2022/12/26 09:15:22;;;;;;;4.27;3.77;;;;;;;;;;5042914;28;20178;-81
2022/12/26 09:17:48;;;;;;;3.50;3.20;;;;;;;;;;5039531;28;20203;-81
2022/12/26 09:20:13;;;;;;;3.67;2.93;;;;;;;;;;5043715;28;20185;-81
2022/12/26 09:22:50;;;;;;;3.33;2.60;;;;;;;;;;5046882;28;20183;-82
2022/12/26 09:25:20;;;;;;;4.17;2.43;;;;;;;;;;5047593;28;20281;-81
2022/12/26 09:27:46;;;;;;;3.37;3.07;;;;;;;;;;5039041;28;20187;-81
2022/12/26 09:30:11;;;;;;;2.73;2.50;;;;;;;;;;5042232;28;20206;-81
2022/12/26 09:32:37;;;;;;;2.30;2.10;;;;;;;;;;5043920;28;20180;-81
2022/12/26 09:35:02;;;;;;;2.27;2.00;;;;;;;;;;5044848;28;20198;-81
2022/12/26 09:37:27;;;;;;;1.97;1.60;;;;;;;;;;5045991;28;20303;-81
2022/12/26 09:39:53;;;;;;;3.37;1.50;;;;;;;;;;5043101;28;20274;-81
2022/12/26 09:42:18;;;;;;;2.20;2.00;;;;;;;;;;5063013;28;20189;-81
2022/12/26 09:44:46;;;;;;;1.55;1.33;;;;;;;;;;5045713;28;20186;-81
2022/12/26 09:47:31;;;;;;;2.30;2.10;;;;;;;;;;5047447;28;20174;-81
2022/12/26 09:50:06;;;;;;;1.90;1.80;;;;;;;;;;5043838;28;20206;-81
2022/12/26 09:53:00;;;;;;;1.60;1.50;;;;;;;;;;5049645;28;20177;-81
2022/12/26 09:55:44;;;;;;;1.40;1.30;;;;;;;;;;5028874;28;20221;-80
2022/12/26 09:58:16;;;;;;;1.23;1.13;;;;;;;;;;5047987;28;20178;-81
2022/12/26 10:01:00;;;;;;;1.30;1.20;;;;;;;;;;5043450;28;20726;-81
2022/12/26 10:03:25;;;;;;;1.77;1.57;;;;;;;;;;5048979;28;20178;-81
2022/12/26 10:06:09;;;;;;;1.13;1.13;;;;;;;;;;5043177;28;20236;-80
2022/12/26 10:08:34;;;;;;;1.50;1.40;;;;;;;;;;5041439;28;20193;-81
2022/12/26 10:11:03;;;;;;;1.00;1.00;;;;;;;;;;5051842;28;20301;-81
2022/12/26 10:13:28;;;;;;;1.20;1.10;;;;;;;;;;5041038;28;20183;-81
2022/12/26 10:16:12;;;;;;;2.10;1.87;;;;;;;;;;5045166;28;20186;-81
2022/12/26 10:18:43;;;;;;;0.90;0.90;;;;;;;;;;5043894;28;20202;-81
2022/12/26 10:21:09;;;;;;;2.80;2.20;;;;;;;;;;5050203;28;20190;-81
2022/12/26 10:23:57;;;;;;;0.80;0.80;;;;;;;;;;5042257;28;20191;-81
2022/12/26 10:26:27;;;;;;;1.50;1.40;;;;;;;;;;5030824;28;20191;-81
2022/12/26 10:28:52;;;;;;;2.60;1.43;;;;;;;;;;5048215;28;20186;-81
2022/12/26 10:31:21;;;;;;;1.00;1.00;;;;;;;;;;5037365;28;20227;-81
2022/12/26 10:33:53;;;;;;;1.77;1.67;;;;;;;;;;5041299;28;20176;-81
2022/12/26 10:36:39;;;;;;;1.33;1.00;;;;;;;;;;5040146;28;20230;-81
2022/12/26 10:39:10;;;;;;;0.80;0.70;;;;;;;;;;5016630;28;20221;-81
2022/12/26 10:41:42;;;;;;;2.13;1.90;;;;;;;;;;5009315;28;20178;-81
2022/12/26 10:44:11;;;;;;;1.20;1.10;;;;;;;;;;5013778;28;20183;-81
2022/12/26 10:46:36;;;;;;;0.80;0.80;;;;;;;;;;5011910;28;20306;-81
2022/12/26 10:49:02;;;;;;;0.57;0.57;;;;;;;;;;5007093;28;20279;-81
2022/12/26 10:51:27;;;;;;;1.60;1.40;;;;;;;;;;5005864;28;20784;-81
2022/12/26 10:53:53;;;;;;;0.93;0.93;;;;;;;;;;5014755;28;20175;-81
2022/12/26 10:56:19;;;;;;;2.53;2.10;;;;;;;;;;5013549;28;20282;-80
2022/12/26 10:58:45;;;;;;;1.10;1.00;;;;;;;;;;5014031;28;20201;-81
2022/12/26 11:01:26;;;;;;;0.83;0.83;;;;;;;;;;5010599;28;20171;-81
2022/12/26 11:03:59;;;;;;;1.50;1.20;;;;;;;;;;5010899;28;20232;-81
2022/12/26 11:06:26;;;;;;;3.90;3.40;;;;;;;;;;5009814;28;20195;-81
2022/12/26 11:08:52;;;;;;;0.70;0.70;;;;;;;;;;5009377;28;20184;-81
2022/12/26 11:11:24;;;;;;;0.97;0.90;;;;;;;;;;5011220;28;20244;-81
2022/12/26 11:13:54;;;;;;;0.70;0.70;;;;;;;;;;5009287;28;20187;-81
2022/12/26 11:16:27;;;;;;;2.43;2.07;;;;;;;;;;5006931;28;20186;-80
2022/12/26 11:18:53;;;;;;;4.43;3.60;;;;;;;;;;5006059;28;20194;-81
2022/12/26 11:21:18;;;;;;;6.50;4.57;;;;;;;;;;5004134;28;20245;-81
2022/12/26 11:23:48;;;;;;;2.97;2.03;;;;;;;;;;5008479;28;20194;-81
2022/12/26 11:26:19;;;;;;;7.57;4.37;;;;;;;;;;5008165;28;20179;-81
2022/12/26 11:28:44;;;;;;;2.17;1.77;;;;;;;;;;5008739;28;20211;-81
2022/12/26 11:31:18;;;;;;;4.10;3.10;;;;;;;;;;5003277;28;20234;-81
2022/12/26 11:33:44;;;;;;;1.40;1.30;;;;;;;;;;5010613;28;20175;-81
2022/12/26 11:36:15;;;;;;;4.03;3.63;;;;;;;;;;5010564;28;20202;-81
2022/12/26 11:38:44;;;;;;;3.10;2.70;;;;;;;;;;5049518;28;20186;-81
2022/12/26 11:43:56;;;;;;;0.73;0.73;;;;;;;;;;5048731;28;20206;-81
2022/12/26 11:46:30;;;;;;;1.07;0.90;;;;;;;;;;5022635;28;20229;-82
2022/12/26 11:48:55;;;;;;;1.57;0.90;;;;;;;;;;5043480;28;20229;-81
2022/12/26 11:51:40;;;;;;;0.60;0.60;;;;;;;;;;5034697;28;20203;-81
2022/12/26 11:54:18;;;;;;;1.00;0.70;;;;;;;;;;5031069;28;20260;-81
2022/12/26 11:56:43;;;;;;;0.67;0.67;;;;;;;;;;5043229;28;20220;-81
2022/12/26 11:59:17;;;;;;;0.97;0.97;;;;;;;;;;5033126;28;20215;-81
2022/12/26 12:01:42;;;;;;;1.70;1.47;;;;;;;;;;5028464;28;20193;-81
2022/12/26 12:04:08;;;;;;;1.83;1.70;;;;;;;;;;5030392;28;20207;-81
2022/12/26 12:06:52;;;;;;;0.93;0.80;;;;;;;;;;5023892;28;20189;-81
2022/12/26 12:09:28;;;;;;;0.60;0.60;;;;;;;;;;5032342;28;20203;-81
2022/12/26 12:11:58;;;;;;;1.37;0.93;;;;;;;;;;5027522;28;20261;-81
2022/12/26 12:14:39;;;;;;;0.90;0.90;;;;;;;;;;5032207;28;20181;-81
2022/12/26 12:17:04;;;;;;;0.50;0.50;;;;;;;;;;5031820;28;20182;-81
2022/12/26 12:19:38;;;;;;;1.37;1.20;;;;;;;;;;5034638;28;20177;-81
2022/12/26 12:22:22;;;;;;;2.27;1.63;;;;;;;;;;5031541;28;20196;-81
2022/12/26 12:24:59;;;;;;;1.67;1.57;;;;;;;;;;5030507;28;20185;-81
2022/12/26 12:27:33;;;;;;;0.73;0.73;;;;;;;;;;5028337;28;20189;-81
2022/12/26 12:29:58;;;;;;;0.50;0.50;;;;;;;;;;5028328;28;20225;-81
2022/12/26 12:32:43;;;;;;;1.70;1.60;;;;;;;;;;5033044;28;20204;-81
2022/12/26 12:35:22;;;;;;;1.40;1.10;;;;;;;;;;5031922;28;20178;-81
2022/12/26 12:37:55;;;;;;;1.67;1.10;;;;;;;;;;5025422;28;20234;-81
2022/12/26 12:40:33;;;;;;;0.90;0.90;;;;;;;;;;5005016;28;20317;-81
2022/12/26 12:43:01;;;;;;;1.03;0.93;;;;;;;;;;5013402;28;20179;-81
2022/12/26 12:45:32;;;;;;;0.90;0.77;;;;;;;;;;5006920;28;20260;-81
2022/12/26 12:48:05;;;;;;;0.87;0.87;;;;;;;;;;5014017;28;20250;-81
2022/12/26 12:50:41;;;;;;;1.30;1.20;;;;;;;;;;5021580;28;20213;-81
2022/12/26 12:53:09;;;;;;;1.00;0.90;;;;;;;;;;5010303;28;20290;-81
2022/12/26 12:55:47;;;;;;;2.70;1.20;;;;;;;;;;5011639;28;20203;-81
2022/12/26 12:58:27;;;;;;;1.10;1.00;;;;;;;;;;5011214;28;20175;-81
2022/12/26 13:00:58;;;;;;;0.80;0.80;;;;;;;;;;5026614;28;20179;-81
2022/12/26 13:03:28;;;;;;;2.37;2.17;;;;;;;;;;5011571;28;20182;-81
2022/12/26 13:05:53;;;;;;;0.97;0.90;;;;;;;;;;5013426;28;20183;-81
2022/12/26 13:08:21;;;;;;;1.70;1.60;;;;;;;;;;5018288;28;20180;-81
2022/12/26 13:10:51;;;;;;;1.07;0.97;;;;;;;;;;5025385;28;20224;-81
2022/12/26 13:13:40;;;;;;;1.00;1.00;;;;;;;;;;5010960;28;20174;-81
2022/12/26 13:16:13;;;;;;;1.23;1.13;;;;;;;;;;4996614;28;20290;-81
2022/12/26 13:18:43;;;;;;;1.87;1.40;;;;;;;;;;5017531;28;20210;-81
2022/12/26 13:21:10;;;;;;;0.90;0.90;;;;;;;;;;5010871;28;20186;-81
2022/12/26 13:26:25;;;;;;;2.03;1.87;;;;;;;;;;5027623;28;20240;-81
2022/12/26 13:29:10;;;;;;;2.50;2.30;;;;;;;;;;5012235;28;20236;-81
2022/12/26 13:31:37;;;;;;;1.30;1.20;;;;;;;;;;5027782;28;20210;-81
2022/12/26 13:34:03;;;;;;;1.13;1.10;;;;;;;;;;5006227;28;20179;-81
2022/12/26 13:36:48;;;;;;;1.03;0.93;;;;;;;;;;5014269;28;20219;-81
2022/12/26 13:39:20;;;;;;;1.20;1.10;;;;;;;;;;5038347;28;20269;-81
2022/12/26 13:44:31;;;;;;;1.27;1.13;;;;;;;;;;5045961;28;20189;-81
2022/12/26 13:46:57;;;;;;;1.27;1.17;;;;;;;;;;5043590;28;20182;-81
2022/12/26 13:49:34;;;;;;;1.30;1.20;;;;;;;;;;5044879;28;20185;-81
2022/12/26 13:52:09;;;;;;;1.00;0.97;;;;;;;;;;5048516;28;20205;-81
2022/12/26 13:54:34;;;;;;;3.60;1.50;;;;;;;;;;5055330;28;20181;-82
2022/12/26 13:57:16;;;;;;;1.23;1.13;;;;;;;;;;5050073;28;20178;-82
2022/12/26 13:59:46;;;;;;;1.27;1.20;;;;;;;;;;5048397;28;20265;-81
2022/12/26 14:02:23;;;;;;;1.03;1.00;;;;;;;;;;5046554;28;20183;-80
2022/12/26 14:05:07;;;;;;;1.37;1.10;;;;;;;;;;5049503;28;20181;-81
2022/12/26 14:07:45;;;;;;;1.30;1.20;;;;;;;;;;5050968;28;20216;-81
2022/12/26 14:10:29;;;;;;;1.37;1.27;;;;;;;;;;5050896;28;20233;-81
2022/12/26 14:13:00;;;;;;;1.23;1.13;;;;;;;;;;5048549;28;20273;-81
2022/12/26 14:15:26;;;;;;;1.17;1.17;;;;;;;;;;5051279;28;20182;-81
2022/12/26 14:18:07;;;;;;;1.93;1.77;;;;;;;;;;5049368;28;20225;-81
2022/12/26 14:20:45;;;;;;;1.73;1.20;;;;;;;;;;5047548;28;20188;-81
2022/12/26 14:23:29;;;;;;;3.00;1.50;;;;;;;;;;5064449;28;20170;-81
2022/12/26 14:25:59;;;;;;;1.20;1.10;;;;;;;;;;5051395;28;20182;-81
2022/12/26 14:28:43;;;;;;;1.40;1.30;;;;;;;;;;5052243;28;20216;-81
2022/12/26 14:31:27;;;;;;;2.00;1.73;;;;;;;;;;5064583;28;20327;-81
2022/12/26 14:33:55;;;;;;;3.53;3.23;;;;;;;;;;5047657;28;20216;-81
2022/12/26 14:36:33;;;;;;;5.00;4.40;;;;;;;;;;5045211;28;20526;-81
2022/12/26 14:39:01;;;;;;;2.67;2.27;;;;;;;;;;5010148;28;20183;-81
2022/12/26 14:44:21;;;;;;;2.67;2.47;;;;;;;;;;4999464;28;20194;-81
2022/12/26 14:46:49;;;;;;;5.67;5.20;;;;;;;;;;5014780;28;20269;-81
2022/12/26 14:49:17;;;;;;;5.80;5.40;;;;;;;;;;5019490;28;20177;-81
2022/12/26 14:51:42;;;;;;;3.10;2.80;;;;;;;;;;5013509;28;20207;-81
2022/12/26 14:54:15;;;;;;;1.67;1.50;;;;;;;;;;5011244;28;20182;-81
2022/12/26 14:56:41;;;;;;;2.20;2.00;;;;;;;;;;5029638;28;20226;-81
2022/12/26 14:59:25;;;;;;;2.27;2.07;;;;;;;;;;5008601;28;20179;-81
2022/12/26 15:01:59;;;;;;;1.30;1.20;;;;;;;;;;5010973;28;20213;-81
2022/12/26 15:04:43;;;;;;;2.10;1.90;;;;;;;;;;5011595;28;20197;-81
2022/12/26 15:07:34;;;;;;;1.60;1.50;;;;;;;;;;5019022;28;20351;-81
2022/12/26 15:10:20;;;;;;;1.70;1.40;;;;;;;;;;5015894;28;20179;-81
2022/12/26 15:12:51;;;;;;;1.30;1.20;;;;;;;;;;5021923;28;20179;-81
2022/12/26 15:15:16;;;;;;;1.67;1.57;;;;;;;;;;5014065;28;20273;-81
2022/12/26 15:18:01;;;;;;;1.40;1.30;;;;;;;;;;5011271;28;20285;-81
2022/12/26 15:20:26;;;;;;;1.60;1.20;;;;;;;;;;5028001;28;20373;-81
2022/12/26 15:23:10;;;;;;;2.10;1.90;;;;;;;;;;5011851;28;20266;-81
2022/12/26 15:25:38;;;;;;;5.13;4.70;;;;;;;;;;5011114;28;20274;-81
2022/12/26 15:28:20;;;;;;;1.40;1.30;;;;;;;;;;5026395;28;20191;-81
2022/12/26 15:30:56;;;;;;;1.30;1.20;;;;;;;;;;5029594;28;20210;-81
2022/12/26 15:33:33;;;;;;;6.23;4.30;;;;;;;;;;5028862;28;20220;-81
2022/12/26 15:36:11;;;;;;;1.10;1.00;;;;;;;;;;5010113;28;20171;-81
2022/12/26 15:38:39;;;;;;;2.37;2.17;;;;;;;;;;5014012;28;20199;-81
2022/12/26 15:41:26;;;;;;;1.30;1.20;;;;;;;;;;5010992;28;20217;-81
2022/12/26 15:43:51;;;;;;;1.60;1.20;;;;;;;;;;5012342;28;20189;-81
2022/12/26 15:46:19;;;;;;;1.40;1.30;;;;;;;;;;5003901;28;20186;-81
2022/12/26 15:48:51;;;;;;;1.33;1.23;;;;;;;;;;5009944;28;20350;-81
2022/12/26 15:51:21;;;;;;;1.27;1.10;;;;;;;;;;5010314;28;20202;-81
2022/12/26 15:53:55;;;;;;;1.57;1.47;;;;;;;;;;5004081;28;20179;-81
2022/12/26 15:56:27;;;;;;;1.10;1.10;;;;;;;;;;5029779;28;20178;-81
2022/12/26 15:58:55;;;;;;;0.90;0.90;;;;;;;;;;5009961;28;20170;-81
2022/12/26 16:01:40;;;;;;;1.03;1.00;;;;;;;;;;5026534;28;20171;-81
2022/12/26 16:04:10;;;;;;;1.20;1.03;;;;;;;;;;5008292;28;20245;-80
2022/12/26 16:06:48;;;;;;;1.57;1.47;;;;;;;;;;5007868;28;20179;-81
2022/12/26 16:09:28;;;;;;;1.30;1.20;;;;;;;;;;5023976;28;20186;-81
2022/12/26 16:11:55;;;;;;;1.57;1.47;;;;;;;;;;5008426;28;20235;-81
2022/12/26 16:14:33;;;;;;;2.93;2.57;;;;;;;;;;5009058;28;20183;-81
2022/12/26 16:17:14;;;;;;;3.00;2.80;;;;;;;;;;5011775;28;20187;-81
2022/12/26 16:19:40;;;;;;;1.87;1.77;;;;;;;;;;5004183;28;20181;-81
2022/12/26 16:24:52;;;;;;;1.60;1.50;;;;;;;;;;5028431;28;20187;-81
2022/12/26 16:27:19;;;;;;;2.17;1.93;;;;;;;;;;5012605;28;20270;-81
2022/12/26 16:29:49;;;;;;;2.03;1.83;;;;;;;;;;5012314;28;20179;-81
2022/12/26 16:32:19;;;;;;;2.43;2.23;;;;;;;;;;5012335;28;20236;-81
2022/12/26 16:34:44;;;;;;;2.00;1.87;;;;;;;;;;5011239;28;20185;-80
2022/12/26 16:37:17;;;;;;;2.20;1.60;;;;;;;;;;5023677;28;20230;-81
2022/12/26 16:39:43;;;;;;;2.90;2.10;;;;;;;;;;5048444;28;20214;-81
2022/12/26 16:42:26;;;;;;;3.17;2.60;;;;;;;;;;5043421;28;20220;-81
2022/12/26 16:44:54;;;;;;;2.27;2.07;;;;;;;;;;5048370;28;20220;-81
2022/12/26 16:47:19;;;;;;;1.30;1.20;;;;;;;;;;5044267;28;20182;-81
2022/12/26 16:49:45;;;;;;;2.30;1.87;;;;;;;;;;5046104;28;20223;-81
2022/12/26 16:52:28;;;;;;;1.90;1.70;;;;;;;;;;5046480;28;20207;-81
2022/12/26 16:54:54;;;;;;;2.47;1.70;;;;;;;;;;5051031;28;20174;-81
2022/12/26 16:57:20;;;;;;;1.80;1.70;;;;;;;;;;5044891;28;20192;-81
2022/12/26 16:59:51;;;;;;;1.60;1.50;;;;;;;;;;5062664;28;20189;-81
2022/12/26 17:02:19;;;;;;;1.77;1.60;;;;;;;;;;5060200;28;20234;-81
2022/12/26 17:04:50;;;;;;;2.47;1.93;;;;;;;;;;5042443;28;20272;-81
2022/12/26 17:07:16;;;;;;;2.97;2.23;;;;;;;;;;5047432;28;20180;-81
2022/12/26 17:09:43;;;;;;;3.30;2.33;;;;;;;;;;5044852;28;20194;-81
2022/12/26 17:12:16;;;;;;;2.10;1.90;;;;;;;;;;5046302;28;20211;-81
2022/12/26 17:14:44;;;;;;;2.80;1.73;;;;;;;;;;5046652;28;20174;-81